sensor_id;sensor_type;location;lat;lon;timestamp;temperature;humidity
20068;DHT22;10194;50.824;7.134;2022-11-20T00:02:23;3.20;99.90
20068;DHT22;10194;50.824;7.134;2022-11-20T00:04:49;3.20;99.90
20068;DHT22;10194;50.824;7.134;2022-11-20T00:07:15;3.30;99.90
20068;DHT22;10194;50.824;7.134;2022-11-20T00:09:40;3.20;99.90
20068;DHT22;10194;50.824;7.134;2022-11-20T00:12:06;3.30;99.90
20068;DHT22;10194;50.824;7.134;2022-11-20T00:14:32;3.30;99.90
20068;DHT22;10194;50.824;7.134;2022-11-20T00:16:58;3.30;99.90
20068;DHT22;10194;50.824;7.134;2022-11-20T00:19:24;3.30;99.90
20068;DHT22;10194;50.824;7.134;2022-11-20T00:21:49;3.30;99.90
20068;DHT22;10194;50.824;7.134;2022-11-20T00:24:16;3.30;99.90
20068;DHT22;10194;50.824;7.134;2022-11-20T00:26:42;3.30;99.90
20068;DHT22;10194;50.824;7.134;2022-11-20T00:29:09;3.30;99.90
20068;DHT22;10194;50.824;7.134;2022-11-20T00:31:35;3.30;99.90
20068;DHT22;10194;50.824;7.134;2022-11-20T00:34:01;3.40;99.90
20068;DHT22;10194;50.824;7.134;2022-11-20T00:36:28;3.40;99.90
20068;DHT22;10194;50.824;7.134;2022-11-20T00:38:57;3.30;99.90
20068;DHT22;10194;50.824;7.134;2022-11-20T00:41:25;3.40;99.90
20068;DHT22;10194;50.824;7.134;2022-11-20T00:43:53;3.40;99.90
20068;DHT22;10194;50.824;7.134;2022-11-20T00:46:21;3.40;99.90
20068;DHT22;10194;50.824;7.134;2022-11-20T00:48:48;3.50;99.90
20068;DHT22;10194;50.824;7.134;2022-11-20T00:51:18;3.40;99.90
20068;DHT22;10194;50.824;7.134;2022-11-20T00:53:45;3.40;99.90
20068;DHT22;10194;50.824;7.134;2022-11-20T00:56:13;3.40;99.90
20068;DHT22;10194;50.824;7.134;2022-11-20T00:58:44;3.30;99.90
20068;DHT22;10194;50.824;7.134;2022-11-20T01:03:45;3.30;99.90
20068;DHT22;10194;50.824;7.134;2022-11-20T01:06:21;3.30;99.90
20068;DHT22;10194;50.824;7.134;2022-11-20T01:08:49;3.30;99.90
20068;DHT22;10194;50.824;7.134;2022-11-20T01:11:21;3.30;99.90
20068;DHT22;10194;50.824;7.134;2022-11-20T01:13:49;3.30;99.90
20068;DHT22;10194;50.824;7.134;2022-11-20T01:16:18;3.30;99.90
20068;DHT22;10194;50.824;7.134;2022-11-20T01:19:06;3.30;99.90
20068;DHT22;10194;50.824;7.134;2022-11-20T01:21:35;3.30;99.90
20068;DHT22;10194;50.824;7.134;2022-11-20T01:24:04;3.30;99.90
20068;DHT22;10194;50.824;7.134;2022-11-20T01:26:33;3.20;99.90
20068;DHT22;10194;50.824;7.134;2022-11-20T01:29:00;3.30;99.90
20068;DHT22;10194;50.824;7.134;2022-11-20T01:31:37;3.30;99.90
20068;DHT22;10194;50.824;7.134;2022-11-20T01:34:05;3.40;99.90
20068;DHT22;10194;50.824;7.134;2022-11-20T01:36:33;3.40;99.90
20068;DHT22;10194;50.824;7.134;2022-11-20T01:39:03;3.50;99.90
20068;DHT22;10194;50.824;7.134;2022-11-20T01:41:37;3.40;99.90
20068;DHT22;10194;50.824;7.134;2022-11-20T01:44:42;3.40;99.90
20068;DHT22;10194;50.824;7.134;2022-11-20T01:47:14;3.50;99.90
20068;DHT22;10194;50.824;7.134;2022-11-20T01:50:05;3.50;99.90
20068;DHT22;10194;50.824;7.134;2022-11-20T01:52:39;3.40;99.90
20068;DHT22;10194;50.824;7.134;2022-11-20T01:55:14;3.40;99.90
20068;DHT22;10194;50.824;7.134;2022-11-20T01:57:48;3.40;99.90
20068;DHT22;10194;50.824;7.134;2022-11-20T02:00:16;3.40;99.90
20068;DHT22;10194;50.824;7.134;2022-11-20T02:02:58;3.40;99.90
20068;DHT22;10194;50.824;7.134;2022-11-20T02:08:35;3.40;99.90
20068;DHT22;10194;50.824;7.134;2022-11-20T02:11:02;3.30;99.90
20068;DHT22;10194;50.824;7.134;2022-11-20T02:13:28;3.30;99.90
20068;DHT22;10194;50.824;7.134;2022-11-20T02:16:14;3.30;99.90
20068;DHT22;10194;50.824;7.134;2022-11-20T02:18:43;3.30;99.90
20068;DHT22;10194;50.824;7.134;2022-11-20T02:21:48;3.30;99.90
20068;DHT22;10194;50.824;7.134;2022-11-20T02:24:20;3.30;99.90
20068;DHT22;10194;50.824;7.134;2022-11-20T02:26:51;3.30;99.90
20068;DHT22;10194;50.824;7.134;2022-11-20T02:29:37;3.30;99.90
20068;DHT22;10194;50.824;7.134;2022-11-20T02:32:05;3.20;99.90
20068;DHT22;10194;50.824;7.134;2022-11-20T02:34:31;3.20;99.90
20068;DHT22;10194;50.824;7.134;2022-11-20T02:36:57;3.10;99.90
20068;DHT22;10194;50.824;7.134;2022-11-20T02:39:25;3.10;99.90
20068;DHT22;10194;50.824;7.134;2022-11-20T02:41:53;3.00;99.90
20068;DHT22;10194;50.824;7.134;2022-11-20T02:44:20;3.00;99.90
20068;DHT22;10194;50.824;7.134;2022-11-20T02:46:46;3.00;99.90
20068;DHT22;10194;50.824;7.134;2022-11-20T02:49:12;3.00;99.90
20068;DHT22;10194;50.824;7.134;2022-11-20T02:51:38;3.00;99.90
20068;DHT22;10194;50.824;7.134;2022-11-20T02:54:03;3.10;99.90
20068;DHT22;10194;50.824;7.134;2022-11-20T02:56:29;3.20;99.90
20068;DHT22;10194;50.824;7.134;2022-11-20T02:58:56;3.20;99.90
20068;DHT22;10194;50.824;7.134;2022-11-20T03:01:21;3.20;99.90
20068;DHT22;10194;50.824;7.134;2022-11-20T03:03:48;3.20;99.90
20068;DHT22;10194;50.824;7.134;2022-11-20T03:06:15;3.20;99.90
20068;DHT22;10194;50.824;7.134;2022-11-20T03:08:42;3.20;99.90
20068;DHT22;10194;50.824;7.134;2022-11-20T03:11:08;3.20;99.90
20068;DHT22;10194;50.824;7.134;2022-11-20T03:13:35;3.10;99.90
20068;DHT22;10194;50.824;7.134;2022-11-20T03:16:26;3.20;99.90
20068;DHT22;10194;50.824;7.134;2022-11-20T03:18:52;3.30;99.90
20068;DHT22;10194;50.824;7.134;2022-11-20T03:21:18;3.40;99.90
20068;DHT22;10194;50.824;7.134;2022-11-20T03:23:44;3.30;99.90
20068;DHT22;10194;50.824;7.134;2022-11-20T03:28:45;3.10;99.90
20068;DHT22;10194;50.824;7.134;2022-11-20T03:31:14;3.10;99.90
20068;DHT22;10194;50.824;7.134;2022-11-20T03:33:42;3.20;99.90
20068;DHT22;10194;50.824;7.134;2022-11-20T03:36:11;3.40;99.90
20068;DHT22;10194;50.824;7.134;2022-11-20T03:38:38;3.50;99.90
20068;DHT22;10194;50.824;7.134;2022-11-20T03:41:07;3.50;99.90
20068;DHT22;10194;50.824;7.134;2022-11-20T03:43:34;3.40;99.90
20068;DHT22;10194;50.824;7.134;2022-11-20T03:46:00;3.50;99.90
20068;DHT22;10194;50.824;7.134;2022-11-20T03:48:26;3.30;99.90
20068;DHT22;10194;50.824;7.134;2022-11-20T03:51:05;3.40;99.90
20068;DHT22;10194;50.824;7.134;2022-11-20T03:53:54;3.30;99.90
20068;DHT22;10194;50.824;7.134;2022-11-20T03:56:24;3.30;99.90
20068;DHT22;10194;50.824;7.134;2022-11-20T03:58:51;3.30;99.90
20068;DHT22;10194;50.824;7.134;2022-11-20T04:01:21;3.30;99.90
20068;DHT22;10194;50.824;7.134;2022-11-20T04:03:49;3.40;99.90
20068;DHT22;10194;50.824;7.134;2022-11-20T04:06:19;3.30;99.90
20068;DHT22;10194;50.824;7.134;2022-11-20T04:08:46;3.30;99.90
20068;DHT22;10194;50.824;7.134;2022-11-20T04:11:20;3.40;99.90
20068;DHT22;10194;50.824;7.134;2022-11-20T04:13:53;3.30;99.90
20068;DHT22;10194;50.824;7.134;2022-11-20T04:16:22;3.30;99.90
20068;DHT22;10194;50.824;7.134;2022-11-20T04:18:55;3.20;99.90
20068;DHT22;10194;50.824;7.134;2022-11-20T04:21:23;3.30;99.90
20068;DHT22;10194;50.824;7.134;2022-11-20T04:23:50;3.30;99.90
20068;DHT22;10194;50.824;7.134;2022-11-20T04:26:16;3.30;99.90
20068;DHT22;10194;50.824;7.134;2022-11-20T04:28:42;3.30;99.90
20068;DHT22;10194;50.824;7.134;2022-11-20T04:31:13;3.30;99.90
20068;DHT22;10194;50.824;7.134;2022-11-20T04:33:41;3.20;99.90
20068;DHT22;10194;50.824;7.134;2022-11-20T04:36:27;3.20;99.90
20068;DHT22;10194;50.824;7.134;2022-11-20T04:38:56;3.20;99.90
20068;DHT22;10194;50.824;7.134;2022-11-20T04:41:24;3.20;99.90
20068;DHT22;10194;50.824;7.134;2022-11-20T04:43:54;3.20;99.90
20068;DHT22;10194;50.824;7.134;2022-11-20T04:46:25;3.20;99.90
20068;DHT22;10194;50.824;7.134;2022-11-20T04:48:52;3.20;99.90
20068;DHT22;10194;50.824;7.134;2022-11-20T04:51:18;3.20;99.90
20068;DHT22;10194;50.824;7.134;2022-11-20T04:53:44;3.20;99.90
20068;DHT22;10194;50.824;7.134;2022-11-20T04:56:11;3.30;99.90
20068;DHT22;10194;50.824;7.134;2022-11-20T04:58:38;3.30;99.90
20068;DHT22;10194;50.824;7.134;2022-11-20T05:01:10;3.20;99.90
20068;DHT22;10194;50.824;7.134;2022-11-20T05:03:38;3.20;99.90
20068;DHT22;10194;50.824;7.134;2022-11-20T05:06:05;3.30;99.90
20068;DHT22;10194;50.824;7.134;2022-11-20T05:08:31;3.20;99.90
20068;DHT22;10194;50.824;7.134;2022-11-20T05:11:06;3.20;99.90
20068;DHT22;10194;50.824;7.134;2022-11-20T05:13:34;3.20;99.90
20068;DHT22;10194;50.824;7.134;2022-11-20T05:16:05;3.20;99.90
20068;DHT22;10194;50.824;7.134;2022-11-20T05:18:39;3.20;99.90
20068;DHT22;10194;50.824;7.134;2022-11-20T05:21:06;3.30;99.90
20068;DHT22;10194;50.824;7.134;2022-11-20T05:23:33;3.30;99.90
20068;DHT22;10194;50.824;7.134;2022-11-20T05:26:00;3.40;99.90
20068;DHT22;10194;50.824;7.134;2022-11-20T05:28:26;3.40;99.90
20068;DHT22;10194;50.824;7.134;2022-11-20T05:30:53;3.40;99.90
20068;DHT22;10194;50.824;7.134;2022-11-20T05:33:19;3.50;99.90
20068;DHT22;10194;50.824;7.134;2022-11-20T05:35:44;3.50;99.90
20068;DHT22;10194;50.824;7.134;2022-11-20T05:38:10;3.40;99.90
20068;DHT22;10194;50.824;7.134;2022-11-20T05:40:36;3.40;99.90
20068;DHT22;10194;50.824;7.134;2022-11-20T05:43:02;3.40;99.90
20068;DHT22;10194;50.824;7.134;2022-11-20T05:45:28;3.30;99.90
20068;DHT22;10194;50.824;7.134;2022-11-20T05:48:00;3.30;99.90
20068;DHT22;10194;50.824;7.134;2022-11-20T05:50:28;3.30;99.90
20068;DHT22;10194;50.824;7.134;2022-11-20T05:52:54;3.30;99.90
20068;DHT22;10194;50.824;7.134;2022-11-20T05:55:20;3.30;99.90
20068;DHT22;10194;50.824;7.134;2022-11-20T05:57:46;3.30;99.90
20068;DHT22;10194;50.824;7.134;2022-11-20T06:00:12;3.20;99.90
20068;DHT22;10194;50.824;7.134;2022-11-20T06:02:38;3.30;99.90
20068;DHT22;10194;50.824;7.134;2022-11-20T06:05:04;3.30;99.90
20068;DHT22;10194;50.824;7.134;2022-11-20T06:07:30;3.30;99.90
20068;DHT22;10194;50.824;7.134;2022-11-20T06:09:56;3.30;99.90
20068;DHT22;10194;50.824;7.134;2022-11-20T06:12:22;3.20;99.90
20068;DHT22;10194;50.824;7.134;2022-11-20T06:14:47;3.20;99.90
20068;DHT22;10194;50.824;7.134;2022-11-20T06:17:13;3.10;99.90
20068;DHT22;10194;50.824;7.134;2022-11-20T06:19:39;3.20;99.90
20068;DHT22;10194;50.824;7.134;2022-11-20T06:22:05;3.10;99.90
20068;DHT22;10194;50.824;7.134;2022-11-20T06:24:30;3.10;99.90
20068;DHT22;10194;50.824;7.134;2022-11-20T06:26:56;3.10;99.90
20068;DHT22;10194;50.824;7.134;2022-11-20T06:29:22;3.10;99.90
20068;DHT22;10194;50.824;7.134;2022-11-20T06:31:47;3.10;99.90
20068;DHT22;10194;50.824;7.134;2022-11-20T06:34:13;3.10;99.90
20068;DHT22;10194;50.824;7.134;2022-11-20T06:36:39;3.20;99.90
20068;DHT22;10194;50.824;7.134;2022-11-20T06:39:05;3.30;99.90
20068;DHT22;10194;50.824;7.134;2022-11-20T06:41:30;3.20;99.90
20068;DHT22;10194;50.824;7.134;2022-11-20T06:43:56;3.30;99.90
20068;DHT22;10194;50.824;7.134;2022-11-20T06:46:22;3.20;99.90
20068;DHT22;10194;50.824;7.134;2022-11-20T06:48:49;3.20;99.90
20068;DHT22;10194;50.824;7.134;2022-11-20T06:51:15;3.30;99.90
20068;DHT22;10194;50.824;7.134;2022-11-20T06:53:41;3.30;99.90
20068;DHT22;10194;50.824;7.134;2022-11-20T06:56:07;3.30;99.90
20068;DHT22;10194;50.824;7.134;2022-11-20T06:58:34;3.20;99.90
20068;DHT22;10194;50.824;7.134;2022-11-20T07:01:05;3.30;99.90
20068;DHT22;10194;50.824;7.134;2022-11-20T07:03:32;3.30;99.90
20068;DHT22;10194;50.824;7.134;2022-11-20T07:05:58;3.30;99.90
20068;DHT22;10194;50.824;7.134;2022-11-20T07:08:25;3.30;99.90
20068;DHT22;10194;50.824;7.134;2022-11-20T07:10:51;3.30;99.90
20068;DHT22;10194;50.824;7.134;2022-11-20T07:13:17;3.30;99.90
20068;DHT22;10194;50.824;7.134;2022-11-20T07:15:43;3.30;99.90
20068;DHT22;10194;50.824;7.134;2022-11-20T07:18:08;3.30;99.90
20068;DHT22;10194;50.824;7.134;2022-11-20T07:20:35;3.30;99.90
20068;DHT22;10194;50.824;7.134;2022-11-20T07:23:01;3.30;99.90
20068;DHT22;10194;50.824;7.134;2022-11-20T07:25:27;3.30;99.90
20068;DHT22;10194;50.824;7.134;2022-11-20T07:27:59;3.40;99.90
20068;DHT22;10194;50.824;7.134;2022-11-20T07:30:26;3.50;99.90
20068;DHT22;10194;50.824;7.134;2022-11-20T07:32:53;3.50;99.90
20068;DHT22;10194;50.824;7.134;2022-11-20T07:35:21;3.50;99.90
20068;DHT22;10194;50.824;7.134;2022-11-20T07:37:47;3.60;99.90
20068;DHT22;10194;50.824;7.134;2022-11-20T07:40:14;3.50;99.90
20068;DHT22;10194;50.824;7.134;2022-11-20T07:42:51;3.40;99.90
20068;DHT22;10194;50.824;7.134;2022-11-20T07:45:18;3.50;99.90
20068;DHT22;10194;50.824;7.134;2022-11-20T07:47:44;3.60;99.90
20068;DHT22;10194;50.824;7.134;2022-11-20T07:50:11;3.60;99.90
20068;DHT22;10194;50.824;7.134;2022-11-20T07:52:37;3.60;99.90
20068;DHT22;10194;50.824;7.134;2022-11-20T07:55:03;3.60;99.90
20068;DHT22;10194;50.824;7.134;2022-11-20T07:57:30;3.60;99.90
20068;DHT22;10194;50.824;7.134;2022-11-20T07:59:56;3.60;99.90
20068;DHT22;10194;50.824;7.134;2022-11-20T08:02:22;3.60;99.90
20068;DHT22;10194;50.824;7.134;2022-11-20T08:04:47;3.70;99.90
20068;DHT22;10194;50.824;7.134;2022-11-20T08:07:13;3.70;99.90
20068;DHT22;10194;50.824;7.134;2022-11-20T08:09:39;3.70;99.90
20068;DHT22;10194;50.824;7.134;2022-11-20T08:12:05;3.80;99.90
20068;DHT22;10194;50.824;7.134;2022-11-20T08:14:49;3.80;99.90
20068;DHT22;10194;50.824;7.134;2022-11-20T08:17:15;3.90;99.90
20068;DHT22;10194;50.824;7.134;2022-11-20T08:19:41;4.00;99.90
20068;DHT22;10194;50.824;7.134;2022-11-20T08:22:07;4.00;99.90
20068;DHT22;10194;50.824;7.134;2022-11-20T08:24:32;4.00;99.90
20068;DHT22;10194;50.824;7.134;2022-11-20T08:26:59;4.10;99.90
20068;DHT22;10194;50.824;7.134;2022-11-20T08:29:26;4.20;99.90
20068;DHT22;10194;50.824;7.134;2022-11-20T08:31:52;4.20;99.90
20068;DHT22;10194;50.824;7.134;2022-11-20T08:34:18;4.30;99.90
20068;DHT22;10194;50.824;7.134;2022-11-20T08:36:44;4.20;99.90
20068;DHT22;10194;50.824;7.134;2022-11-20T08:39:13;4.20;99.90
20068;DHT22;10194;50.824;7.134;2022-11-20T08:41:39;4.30;99.90
20068;DHT22;10194;50.824;7.134;2022-11-20T08:44:06;4.50;99.90
20068;DHT22;10194;50.824;7.134;2022-11-20T08:46:40;4.60;99.90
20068;DHT22;10194;50.824;7.134;2022-11-20T08:49:08;4.70;99.90
20068;DHT22;10194;50.824;7.134;2022-11-20T08:51:36;4.90;99.90
20068;DHT22;10194;50.824;7.134;2022-11-20T08:54:03;5.20;99.90
20068;DHT22;10194;50.824;7.134;2022-11-20T08:56:29;5.20;99.90
20068;DHT22;10194;50.824;7.134;2022-11-20T08:58:55;5.20;99.90
20068;DHT22;10194;50.824;7.134;2022-11-20T09:01:22;5.30;99.90
20068;DHT22;10194;50.824;7.134;2022-11-20T09:03:49;5.20;99.90
20068;DHT22;10194;50.824;7.134;2022-11-20T09:06:15;5.20;99.90
20068;DHT22;10194;50.824;7.134;2022-11-20T09:08:41;5.20;99.90
20068;DHT22;10194;50.824;7.134;2022-11-20T09:11:07;5.20;99.90
20068;DHT22;10194;50.824;7.134;2022-11-20T09:13:34;5.30;99.90
20068;DHT22;10194;50.824;7.134;2022-11-20T09:16:05;5.30;99.90
20068;DHT22;10194;50.824;7.134;2022-11-20T09:18:33;5.30;99.90
20068;DHT22;10194;50.824;7.134;2022-11-20T09:21:04;5.20;99.90
20068;DHT22;10194;50.824;7.134;2022-11-20T09:23:34;5.10;99.90
20068;DHT22;10194;50.824;7.134;2022-11-20T09:26:11;5.10;99.90
20068;DHT22;10194;50.824;7.134;2022-11-20T09:28:38;5.00;99.90
20068;DHT22;10194;50.824;7.134;2022-11-20T09:31:09;4.90;99.90
20068;DHT22;10194;50.824;7.134;2022-11-20T09:33:47;5.00;99.90
20068;DHT22;10194;50.824;7.134;2022-11-20T09:36:12;4.70;99.90
20068;DHT22;10194;50.824;7.134;2022-11-20T09:38:38;4.70;99.90
20068;DHT22;10194;50.824;7.134;2022-11-20T09:41:06;4.90;99.90
20068;DHT22;10194;50.824;7.134;2022-11-20T09:43:58;5.00;99.90
20068;DHT22;10194;50.824;7.134;2022-11-20T09:49:47;5.20;99.90
20068;DHT22;10194;50.824;7.134;2022-11-20T09:53:13;5.40;99.90
20068;DHT22;10194;50.824;7.134;2022-11-20T09:56:01;5.50;99.90
20068;DHT22;10194;50.824;7.134;2022-11-20T09:58:41;5.60;99.90
20068;DHT22;10194;50.824;7.134;2022-11-20T10:01:21;5.60;99.90
20068;DHT22;10194;50.824;7.134;2022-11-20T10:04:06;5.60;99.90
20068;DHT22;10194;50.824;7.134;2022-11-20T10:09:56;5.70;99.90
20068;DHT22;10194;50.824;7.134;2022-11-20T10:30:09;6.20;99.90
20068;DHT22;10194;50.824;7.134;2022-11-20T10:32:46;6.30;99.90
20068;DHT22;10194;50.824;7.134;2022-11-20T10:35:37;6.20;99.90
20068;DHT22;10194;50.824;7.134;2022-11-20T10:38:21;6.00;99.90
20068;DHT22;10194;50.824;7.134;2022-11-20T10:40:56;5.80;99.90
20068;DHT22;10194;50.824;7.134;2022-11-20T10:43:44;5.70;99.90
20068;DHT22;10194;50.824;7.134;2022-11-20T10:46:22;5.80;99.90
20068;DHT22;10194;50.824;7.134;2022-11-20T10:48:48;6.10;99.90
20068;DHT22;10194;50.824;7.134;2022-11-20T10:51:44;5.90;99.90
20068;DHT22;10194;50.824;7.134;2022-11-20T11:00:41;6.10;99.90
20068;DHT22;10194;50.824;7.134;2022-11-20T11:03:27;6.10;99.90
20068;DHT22;10194;50.824;7.134;2022-11-20T11:06:08;6.10;99.90
20068;DHT22;10194;50.824;7.134;2022-11-20T11:08:43;5.90;99.90
20068;DHT22;10194;50.824;7.134;2022-11-20T11:11:23;5.80;99.90
20068;DHT22;10194;50.824;7.134;2022-11-20T11:13:51;5.80;99.90
20068;DHT22;10194;50.824;7.134;2022-11-20T11:16:26;5.60;99.90
20068;DHT22;10194;50.824;7.134;2022-11-20T11:19:04;5.70;99.90
20068;DHT22;10194;50.824;7.134;2022-11-20T11:21:30;5.70;99.90
20068;DHT22;10194;50.824;7.134;2022-11-20T11:23:59;5.70;99.90
20068;DHT22;10194;50.824;7.134;2022-11-20T11:26:26;5.70;99.90
20068;DHT22;10194;50.824;7.134;2022-11-20T11:28:59;5.90;99.90
20068;DHT22;10194;50.824;7.134;2022-11-20T11:31:29;6.00;99.90
20068;DHT22;10194;50.824;7.134;2022-11-20T11:34:15;6.20;99.90
20068;DHT22;10194;50.824;7.134;2022-11-20T11:36:56;6.30;99.90
20068;DHT22;10194;50.824;7.134;2022-11-20T11:39:23;6.40;99.90
20068;DHT22;10194;50.824;7.134;2022-11-20T11:41:50;6.40;99.90
20068;DHT22;10194;50.824;7.134;2022-11-20T11:44:22;6.50;99.90
20068;DHT22;10194;50.824;7.134;2022-11-20T11:55:49;6.10;99.90
20068;DHT22;10194;50.824;7.134;2022-11-20T12:01:43;6.10;99.90
20068;DHT22;10194;50.824;7.134;2022-11-20T12:07:24;6.10;99.90
20068;DHT22;10194;50.824;7.134;2022-11-20T12:10:38;6.20;99.90
20068;DHT22;10194;50.824;7.134;2022-11-20T12:16:03;5.90;99.90
20068;DHT22;10194;50.824;7.134;2022-11-20T12:18:29;5.80;99.90
20068;DHT22;10194;50.824;7.134;2022-11-20T12:21:18;5.80;99.90
20068;DHT22;10194;50.824;7.134;2022-11-20T12:48:22;6.20;99.90
20068;DHT22;10194;50.824;7.134;2022-11-20T12:57:09;6.30;99.90
20068;DHT22;10194;50.824;7.134;2022-11-20T13:05:31;6.30;99.90
20068;DHT22;10194;50.824;7.134;2022-11-20T13:08:02;6.20;99.90
20068;DHT22;10194;50.824;7.134;2022-11-20T13:10:39;6.40;99.90
20068;DHT22;10194;50.824;7.134;2022-11-20T13:18:43;6.50;99.90
20068;DHT22;10194;50.824;7.134;2022-11-20T13:21:18;6.40;99.90
20068;DHT22;10194;50.824;7.134;2022-11-20T13:23:46;6.40;99.90
20068;DHT22;10194;50.824;7.134;2022-11-20T13:28:46;6.30;99.90
20068;DHT22;10194;50.824;7.134;2022-11-20T13:31:33;6.50;99.90
20068;DHT22;10194;50.824;7.134;2022-11-20T13:34:03;6.50;99.90
20068;DHT22;10194;50.824;7.134;2022-11-20T13:36:30;6.60;99.90
20068;DHT22;10194;50.824;7.134;2022-11-20T13:38:57;6.60;99.90
20068;DHT22;10194;50.824;7.134;2022-11-20T13:41:35;6.50;99.90
20068;DHT22;10194;50.824;7.134;2022-11-20T13:46:41;6.50;99.90
20068;DHT22;10194;50.824;7.134;2022-11-20T13:49:21;6.50;99.90
20068;DHT22;10194;50.824;7.134;2022-11-20T14:00:54;6.50;99.90
20068;DHT22;10194;50.824;7.134;2022-11-20T14:03:24;6.50;99.90
20068;DHT22;10194;50.824;7.134;2022-11-20T14:05:57;6.50;99.90
20068;DHT22;10194;50.824;7.134;2022-11-20T14:08:43;6.60;99.90
20068;DHT22;10194;50.824;7.134;2022-11-20T14:11:18;6.60;99.90
20068;DHT22;10194;50.824;7.134;2022-11-20T14:14:00;6.60;99.90
20068;DHT22;10194;50.824;7.134;2022-11-20T14:16:39;6.50;99.90
20068;DHT22;10194;50.824;7.134;2022-11-20T14:21:47;6.60;99.90
20068;DHT22;10194;50.824;7.134;2022-11-20T14:24:22;6.50;99.90
20068;DHT22;10194;50.824;7.134;2022-11-20T14:26:49;6.50;99.90
20068;DHT22;10194;50.824;7.134;2022-11-20T14:29:38;6.60;99.90
20068;DHT22;10194;50.824;7.134;2022-11-20T14:32:05;6.60;99.90
20068;DHT22;10194;50.824;7.134;2022-11-20T14:34:37;6.60;99.90
20068;DHT22;10194;50.824;7.134;2022-11-20T14:37:10;6.60;99.90
20068;DHT22;10194;50.824;7.134;2022-11-20T14:39:42;6.60;99.90
20068;DHT22;10194;50.824;7.134;2022-11-20T14:42:23;6.70;99.90
20068;DHT22;10194;50.824;7.134;2022-11-20T14:44:52;6.80;99.90
20068;DHT22;10194;50.824;7.134;2022-11-20T14:47:23;6.70;99.90
20068;DHT22;10194;50.824;7.134;2022-11-20T14:49:52;6.80;99.90
20068;DHT22;10194;50.824;7.134;2022-11-20T14:52:26;6.80;99.90
20068;DHT22;10194;50.824;7.134;2022-11-20T14:54:55;6.70;99.90
20068;DHT22;10194;50.824;7.134;2022-11-20T14:57:33;6.80;99.90
20068;DHT22;10194;50.824;7.134;2022-11-20T15:02:45;6.80;99.90
20068;DHT22;10194;50.824;7.134;2022-11-20T15:05:13;6.80;99.90
20068;DHT22;10194;50.824;7.134;2022-11-20T15:07:42;6.90;99.90
20068;DHT22;10194;50.824;7.134;2022-11-20T15:10:21;6.80;99.90
20068;DHT22;10194;50.824;7.134;2022-11-20T15:12:53;6.80;99.90
20068;DHT22;10194;50.824;7.134;2022-11-20T15:15:29;6.70;99.90
20068;DHT22;10194;50.824;7.134;2022-11-20T15:17:57;6.80;99.90
20068;DHT22;10194;50.824;7.134;2022-11-20T15:20:28;6.80;99.90
20068;DHT22;10194;50.824;7.134;2022-11-20T15:22:56;6.80;99.90
20068;DHT22;10194;50.824;7.134;2022-11-20T15:25:22;6.70;99.90
20068;DHT22;10194;50.824;7.134;2022-11-20T15:27:53;6.70;99.90
20068;DHT22;10194;50.824;7.134;2022-11-20T15:30:21;6.70;99.90
20068;DHT22;10194;50.824;7.134;2022-11-20T15:32:47;6.80;99.90
20068;DHT22;10194;50.824;7.134;2022-11-20T15:35:15;6.70;99.90
20068;DHT22;10194;50.824;7.134;2022-11-20T15:37:41;6.60;99.90
20068;DHT22;10194;50.824;7.134;2022-11-20T15:40:08;6.70;99.90
20068;DHT22;10194;50.824;7.134;2022-11-20T15:42:34;6.60;99.90
20068;DHT22;10194;50.824;7.134;2022-11-20T15:45:01;6.60;99.90
20068;DHT22;10194;50.824;7.134;2022-11-20T15:47:30;6.60;99.90
20068;DHT22;10194;50.824;7.134;2022-11-20T15:49:58;6.50;99.90
20068;DHT22;10194;50.824;7.134;2022-11-20T15:52:23;6.50;99.90
20068;DHT22;10194;50.824;7.134;2022-11-20T15:54:49;6.50;99.90
20068;DHT22;10194;50.824;7.134;2022-11-20T15:57:15;6.40;99.90
20068;DHT22;10194;50.824;7.134;2022-11-20T15:59:41;6.50;99.90
20068;DHT22;10194;50.824;7.134;2022-11-20T16:02:14;6.40;99.90
20068;DHT22;10194;50.824;7.134;2022-11-20T16:04:41;6.30;99.90
20068;DHT22;10194;50.824;7.134;2022-11-20T16:07:06;6.30;99.90
20068;DHT22;10194;50.824;7.134;2022-11-20T16:09:33;6.30;99.90
20068;DHT22;10194;50.824;7.134;2022-11-20T16:11:59;6.40;99.90
20068;DHT22;10194;50.824;7.134;2022-11-20T16:14:26;6.40;99.90
20068;DHT22;10194;50.824;7.134;2022-11-20T16:17:10;6.40;99.90
20068;DHT22;10194;50.824;7.134;2022-11-20T16:19:36;6.40;99.90
20068;DHT22;10194;50.824;7.134;2022-11-20T16:22:03;6.40;99.90
20068;DHT22;10194;50.824;7.134;2022-11-20T16:24:29;6.40;99.90
20068;DHT22;10194;50.824;7.134;2022-11-20T16:26:56;6.50;99.90
20068;DHT22;10194;50.824;7.134;2022-11-20T16:29:22;6.50;99.90
20068;DHT22;10194;50.824;7.134;2022-11-20T16:31:48;6.50;99.90
20068;DHT22;10194;50.824;7.134;2022-11-20T16:34:15;6.50;99.90
20068;DHT22;10194;50.824;7.134;2022-11-20T16:36:43;6.60;99.90
20068;DHT22;10194;50.824;7.134;2022-11-20T16:39:10;6.50;99.90
20068;DHT22;10194;50.824;7.134;2022-11-20T16:41:37;6.50;99.90
20068;DHT22;10194;50.824;7.134;2022-11-20T16:44:08;6.50;99.90
20068;DHT22;10194;50.824;7.134;2022-11-20T16:46:34;6.50;99.90
20068;DHT22;10194;50.824;7.134;2022-11-20T16:49:03;6.50;99.90
20068;DHT22;10194;50.824;7.134;2022-11-20T16:51:35;6.50;99.90
20068;DHT22;10194;50.824;7.134;2022-11-20T16:54:06;6.50;99.90
20068;DHT22;10194;50.824;7.134;2022-11-20T16:56:32;6.50;99.90
20068;DHT22;10194;50.824;7.134;2022-11-20T16:58:59;6.50;99.90
20068;DHT22;10194;50.824;7.134;2022-11-20T17:01:27;6.50;99.90
20068;DHT22;10194;50.824;7.134;2022-11-20T17:03:55;6.50;99.90
20068;DHT22;10194;50.824;7.134;2022-11-20T17:06:28;6.40;99.90
20068;DHT22;10194;50.824;7.134;2022-11-20T17:08:55;6.40;99.90
20068;DHT22;10194;50.824;7.134;2022-11-20T17:11:22;6.40;99.90
20068;DHT22;10194;50.824;7.134;2022-11-20T17:13:49;6.40;99.90
20068;DHT22;10194;50.824;7.134;2022-11-20T17:16:17;6.40;99.90
20068;DHT22;10194;50.824;7.134;2022-11-20T17:18:45;6.40;99.90
20068;DHT22;10194;50.824;7.134;2022-11-20T17:21:11;6.40;99.90
20068;DHT22;10194;50.824;7.134;2022-11-20T17:23:40;6.40;99.90
20068;DHT22;10194;50.824;7.134;2022-11-20T17:26:09;6.40;99.90
20068;DHT22;10194;50.824;7.134;2022-11-20T17:28:37;6.40;99.90
20068;DHT22;10194;50.824;7.134;2022-11-20T17:31:05;6.40;99.90
20068;DHT22;10194;50.824;7.134;2022-11-20T17:33:34;6.30;99.90
20068;DHT22;10194;50.824;7.134;2022-11-20T17:36:02;6.40;99.90
20068;DHT22;10194;50.824;7.134;2022-11-20T17:38:28;6.30;99.90
20068;DHT22;10194;50.824;7.134;2022-11-20T17:41:04;6.30;99.90
20068;DHT22;10194;50.824;7.134;2022-11-20T17:43:32;6.40;99.90
20068;DHT22;10194;50.824;7.134;2022-11-20T17:45:58;6.30;99.90
20068;DHT22;10194;50.824;7.134;2022-11-20T17:48:24;6.30;99.90
20068;DHT22;10194;50.824;7.134;2022-11-20T17:50:50;6.30;99.90
20068;DHT22;10194;50.824;7.134;2022-11-20T17:53:16;6.40;99.90
20068;DHT22;10194;50.824;7.134;2022-11-20T17:55:42;6.40;99.90
20068;DHT22;10194;50.824;7.134;2022-11-20T17:58:27;6.40;99.90
20068;DHT22;10194;50.824;7.134;2022-11-20T18:00:53;6.30;99.90
20068;DHT22;10194;50.824;7.134;2022-11-20T18:03:18;6.30;99.90